sensor_id;sensor_type;location;lat;lon;timestamp;temperature;humidity
35962;DHT22;22044;48.298;10.008;2024-02-16T00:02:21;6.30;99.90
35962;DHT22;22044;48.298;10.008;2024-02-16T00:05:08;6.40;99.90
35962;DHT22;22044;48.298;10.008;2024-02-16T00:07:55;6.40;99.90
35962;DHT22;22044;48.298;10.008;2024-02-16T00:10:41;6.30;99.90
35962;DHT22;22044;48.298;10.008;2024-02-16T00:13:27;6.00;99.90
35962;DHT22;22044;48.298;10.008;2024-02-16T00:16:38;5.90;99.90
35962;DHT22;22044;48.298;10.008;2024-02-16T00:19:51;5.90;99.90
35962;DHT22;22044;48.298;10.008;2024-02-16T00:22:37;6.00;99.90
35962;DHT22;22044;48.298;10.008;2024-02-16T00:25:22;6.10;99.90
35962;DHT22;22044;48.298;10.008;2024-02-16T00:28:08;6.10;99.90
35962;DHT22;22044;48.298;10.008;2024-02-16T00:30:54;6.10;99.90
35962;DHT22;22044;48.298;10.008;2024-02-16T00:33:40;6.10;99.90
35962;DHT22;22044;48.298;10.008;2024-02-16T00:36:28;6.20;99.90
35962;DHT22;22044;48.298;10.008;2024-02-16T00:39:16;6.30;99.90
35962;DHT22;22044;48.298;10.008;2024-02-16T00:42:02;6.30;99.90
35962;DHT22;22044;48.298;10.008;2024-02-16T00:44:47;6.30;99.90
35962;DHT22;22044;48.298;10.008;2024-02-16T00:47:33;6.40;99.90
35962;DHT22;22044;48.298;10.008;2024-02-16T00:50:19;6.40;99.90
35962;DHT22;22044;48.298;10.008;2024-02-16T00:53:06;6.40;99.90
35962;DHT22;22044;48.298;10.008;2024-02-16T00:55:52;6.40;99.90
35962;DHT22;22044;48.298;10.008;2024-02-16T00:58:40;6.40;99.90
35962;DHT22;22044;48.298;10.008;2024-02-16T01:01:27;6.30;99.90
35962;DHT22;22044;48.298;10.008;2024-02-16T01:04:12;6.30;99.90
35962;DHT22;22044;48.298;10.008;2024-02-16T01:06:58;6.40;99.90
35962;DHT22;22044;48.298;10.008;2024-02-16T01:09:45;6.40;99.90
35962;DHT22;22044;48.298;10.008;2024-02-16T01:12:31;6.40;99.90
35962;DHT22;22044;48.298;10.008;2024-02-16T01:15:17;6.40;99.90
35962;DHT22;22044;48.298;10.008;2024-02-16T01:18:03;6.40;99.90
35962;DHT22;22044;48.298;10.008;2024-02-16T01:20:49;6.40;99.90
35962;DHT22;22044;48.298;10.008;2024-02-16T01:23:34;6.40;99.90
35962;DHT22;22044;48.298;10.008;2024-02-16T01:26:21;6.40;99.90
35962;DHT22;22044;48.298;10.008;2024-02-16T01:29:07;6.40;99.90
35962;DHT22;22044;48.298;10.008;2024-02-16T01:31:53;6.40;99.90
35962;DHT22;22044;48.298;10.008;2024-02-16T01:34:38;6.40;99.90
35962;DHT22;22044;48.298;10.008;2024-02-16T01:37:24;6.40;99.90
35962;DHT22;22044;48.298;10.008;2024-02-16T01:40:10;6.30;99.90
35962;DHT22;22044;48.298;10.008;2024-02-16T01:42:59;6.30;99.90
35962;DHT22;22044;48.298;10.008;2024-02-16T01:45:45;6.30;99.90
35962;DHT22;22044;48.298;10.008;2024-02-16T01:48:33;6.40;99.90
35962;DHT22;22044;48.298;10.008;2024-02-16T01:51:19;6.30;99.90
35962;DHT22;22044;48.298;10.008;2024-02-16T01:54:04;6.30;99.90
35962;DHT22;22044;48.298;10.008;2024-02-16T01:56:50;6.30;99.90
35962;DHT22;22044;48.298;10.008;2024-02-16T01:59:37;6.30;99.90
35962;DHT22;22044;48.298;10.008;2024-02-16T02:02:24;6.30;99.90
35962;DHT22;22044;48.298;10.008;2024-02-16T02:05:10;6.20;99.90
35962;DHT22;22044;48.298;10.008;2024-02-16T02:07:56;6.10;99.90
35962;DHT22;22044;48.298;10.008;2024-02-16T02:10:42;6.00;99.90
35962;DHT22;22044;48.298;10.008;2024-02-16T02:13:28;5.80;99.90
35962;DHT22;22044;48.298;10.008;2024-02-16T02:16:17;5.80;99.90
35962;DHT22;22044;48.298;10.008;2024-02-16T02:19:04;5.80;99.90
35962;DHT22;22044;48.298;10.008;2024-02-16T02:21:50;5.80;99.90
35962;DHT22;22044;48.298;10.008;2024-02-16T02:24:37;5.90;99.90
35962;DHT22;22044;48.298;10.008;2024-02-16T02:27:23;6.00;99.90
35962;DHT22;22044;48.298;10.008;2024-02-16T02:30:09;5.90;99.90
35962;DHT22;22044;48.298;10.008;2024-02-16T02:32:55;5.80;99.90
35962;DHT22;22044;48.298;10.008;2024-02-16T02:35:41;5.70;99.90
35962;DHT22;22044;48.298;10.008;2024-02-16T02:38:27;5.80;99.90
35962;DHT22;22044;48.298;10.008;2024-02-16T02:41:16;5.80;99.90
35962;DHT22;22044;48.298;10.008;2024-02-16T02:44:04;5.60;99.90
35962;DHT22;22044;48.298;10.008;2024-02-16T02:46:49;5.40;99.90
35962;DHT22;22044;48.298;10.008;2024-02-16T02:49:35;5.40;99.90
35962;DHT22;22044;48.298;10.008;2024-02-16T02:52:21;5.50;99.90
35962;DHT22;22044;48.298;10.008;2024-02-16T02:55:07;5.40;99.90
35962;DHT22;22044;48.298;10.008;2024-02-16T02:57:55;5.50;99.90
35962;DHT22;22044;48.298;10.008;2024-02-16T03:00:42;5.30;99.90
35962;DHT22;22044;48.298;10.008;2024-02-16T03:03:29;5.30;99.90
35962;DHT22;22044;48.298;10.008;2024-02-16T03:06:17;5.40;99.90
35962;DHT22;22044;48.298;10.008;2024-02-16T03:09:03;5.40;99.90
35962;DHT22;22044;48.298;10.008;2024-02-16T03:11:49;5.50;99.90
35962;DHT22;22044;48.298;10.008;2024-02-16T03:14:37;5.50;99.90
35962;DHT22;22044;48.298;10.008;2024-02-16T03:17:22;5.40;99.90
35962;DHT22;22044;48.298;10.008;2024-02-16T03:20:09;5.40;99.90
35962;DHT22;22044;48.298;10.008;2024-02-16T03:22:55;5.40;99.90
35962;DHT22;22044;48.298;10.008;2024-02-16T03:25:41;5.40;99.90
35962;DHT22;22044;48.298;10.008;2024-02-16T03:28:27;5.40;99.90
35962;DHT22;22044;48.298;10.008;2024-02-16T03:31:21;5.30;99.90
35962;DHT22;22044;48.298;10.008;2024-02-16T03:34:07;5.20;99.90
35962;DHT22;22044;48.298;10.008;2024-02-16T03:36:53;5.30;99.90
35962;DHT22;22044;48.298;10.008;2024-02-16T03:39:39;5.30;99.90
35962;DHT22;22044;48.298;10.008;2024-02-16T03:42:25;5.40;99.90
35962;DHT22;22044;48.298;10.008;2024-02-16T03:45:13;5.50;99.90
35962;DHT22;22044;48.298;10.008;2024-02-16T03:48:01;5.60;99.90
35962;DHT22;22044;48.298;10.008;2024-02-16T03:50:46;5.70;99.90
35962;DHT22;22044;48.298;10.008;2024-02-16T03:53:32;5.70;99.90
35962;DHT22;22044;48.298;10.008;2024-02-16T03:56:19;5.70;99.90
35962;DHT22;22044;48.298;10.008;2024-02-16T03:59:05;5.80;99.90
35962;DHT22;22044;48.298;10.008;2024-02-16T04:01:51;5.80;99.90
35962;DHT22;22044;48.298;10.008;2024-02-16T04:04:41;5.80;99.90
35962;DHT22;22044;48.298;10.008;2024-02-16T04:07:27;5.80;99.90
35962;DHT22;22044;48.298;10.008;2024-02-16T04:10:12;5.80;99.90
35962;DHT22;22044;48.298;10.008;2024-02-16T04:12:58;5.80;99.90
35962;DHT22;22044;48.298;10.008;2024-02-16T04:15:44;5.90;99.90
35962;DHT22;22044;48.298;10.008;2024-02-16T04:18:30;5.90;99.90
35962;DHT22;22044;48.298;10.008;2024-02-16T04:21:17;5.80;99.90
35962;DHT22;22044;48.298;10.008;2024-02-16T04:24:03;5.90;99.90
35962;DHT22;22044;48.298;10.008;2024-02-16T04:26:49;5.80;99.90
35962;DHT22;22044;48.298;10.008;2024-02-16T04:29:35;5.90;99.90
35962;DHT22;22044;48.298;10.008;2024-02-16T04:32:46;5.80;99.90
35962;DHT22;22044;48.298;10.008;2024-02-16T04:35:35;5.90;99.90
35962;DHT22;22044;48.298;10.008;2024-02-16T04:38:22;5.90;99.90
35962;DHT22;22044;48.298;10.008;2024-02-16T04:41:08;5.80;99.90
35962;DHT22;22044;48.298;10.008;2024-02-16T04:43:56;5.80;99.90
35962;DHT22;22044;48.298;10.008;2024-02-16T04:46:42;5.90;99.90
35962;DHT22;22044;48.298;10.008;2024-02-16T04:49:28;5.80;99.90
35962;DHT22;22044;48.298;10.008;2024-02-16T04:52:14;5.80;99.90
35962;DHT22;22044;48.298;10.008;2024-02-16T04:55:00;5.80;99.90
35962;DHT22;22044;48.298;10.008;2024-02-16T04:57:46;5.70;99.90
35962;DHT22;22044;48.298;10.008;2024-02-16T05:00:32;5.70;99.90
35962;DHT22;22044;48.298;10.008;2024-02-16T05:03:18;5.70;99.90
35962;DHT22;22044;48.298;10.008;2024-02-16T05:06:04;5.60;99.90
35962;DHT22;22044;48.298;10.008;2024-02-16T05:08:50;5.60;99.90
35962;DHT22;22044;48.298;10.008;2024-02-16T05:11:37;5.70;99.90
35962;DHT22;22044;48.298;10.008;2024-02-16T05:14:23;5.70;99.90
35962;DHT22;22044;48.298;10.008;2024-02-16T05:17:09;5.80;99.90
35962;DHT22;22044;48.298;10.008;2024-02-16T05:19:56;5.90;99.90
35962;DHT22;22044;48.298;10.008;2024-02-16T05:22:42;5.90;99.90
35962;DHT22;22044;48.298;10.008;2024-02-16T05:25:30;5.90;99.90
35962;DHT22;22044;48.298;10.008;2024-02-16T05:28:17;5.90;99.90
35962;DHT22;22044;48.298;10.008;2024-02-16T05:31:13;5.80;99.90
35962;DHT22;22044;48.298;10.008;2024-02-16T05:34:00;5.90;99.90
35962;DHT22;22044;48.298;10.008;2024-02-16T05:36:45;5.80;99.90
35962;DHT22;22044;48.298;10.008;2024-02-16T05:39:32;5.90;99.90
35962;DHT22;22044;48.298;10.008;2024-02-16T05:42:20;5.90;99.90
35962;DHT22;22044;48.298;10.008;2024-02-16T05:45:09;5.80;99.90
35962;DHT22;22044;48.298;10.008;2024-02-16T05:47:55;5.60;99.90
35962;DHT22;22044;48.298;10.008;2024-02-16T05:50:42;5.50;99.90
35962;DHT22;22044;48.298;10.008;2024-02-16T05:53:28;5.60;99.90
35962;DHT22;22044;48.298;10.008;2024-02-16T05:56:14;5.60;99.90
35962;DHT22;22044;48.298;10.008;2024-02-16T05:58:59;5.60;99.90
35962;DHT22;22044;48.298;10.008;2024-02-16T06:01:47;5.50;99.90
35962;DHT22;22044;48.298;10.008;2024-02-16T06:04:33;5.50;99.90
35962;DHT22;22044;48.298;10.008;2024-02-16T06:07:18;5.50;99.90
35962;DHT22;22044;48.298;10.008;2024-02-16T06:10:05;5.50;99.90
35962;DHT22;22044;48.298;10.008;2024-02-16T06:12:55;5.60;99.90
35962;DHT22;22044;48.298;10.008;2024-02-16T06:15:40;5.60;99.90
35962;DHT22;22044;48.298;10.008;2024-02-16T06:18:28;5.60;99.90
35962;DHT22;22044;48.298;10.008;2024-02-16T06:21:14;5.60;99.90
35962;DHT22;22044;48.298;10.008;2024-02-16T06:24:00;5.60;99.90
35962;DHT22;22044;48.298;10.008;2024-02-16T06:26:46;5.60;99.90
35962;DHT22;22044;48.298;10.008;2024-02-16T06:29:35;5.70;99.90
35962;DHT22;22044;48.298;10.008;2024-02-16T06:32:21;5.70;99.90
35962;DHT22;22044;48.298;10.008;2024-02-16T06:35:09;5.80;99.90
35962;DHT22;22044;48.298;10.008;2024-02-16T06:37:55;5.80;99.90
35962;DHT22;22044;48.298;10.008;2024-02-16T06:40:41;5.80;99.90
35962;DHT22;22044;48.298;10.008;2024-02-16T06:43:27;5.80;99.90
35962;DHT22;22044;48.298;10.008;2024-02-16T06:46:13;5.80;99.90
35962;DHT22;22044;48.298;10.008;2024-02-16T06:48:59;5.90;99.90
35962;DHT22;22044;48.298;10.008;2024-02-16T06:51:51;5.90;99.90
35962;DHT22;22044;48.298;10.008;2024-02-16T06:54:37;5.90;99.90
35962;DHT22;22044;48.298;10.008;2024-02-16T06:57:26;5.90;99.90
35962;DHT22;22044;48.298;10.008;2024-02-16T07:00:15;5.90;99.90
35962;DHT22;22044;48.298;10.008;2024-02-16T07:03:01;6.00;99.90
35962;DHT22;22044;48.298;10.008;2024-02-16T07:05:47;6.00;99.90
35962;DHT22;22044;48.298;10.008;2024-02-16T07:08:35;6.00;99.90
35962;DHT22;22044;48.298;10.008;2024-02-16T07:11:20;6.00;99.90
35962;DHT22;22044;48.298;10.008;2024-02-16T07:14:06;6.00;99.90
35962;DHT22;22044;48.298;10.008;2024-02-16T07:16:52;6.00;99.90
35962;DHT22;22044;48.298;10.008;2024-02-16T07:19:38;6.00;99.90
35962;DHT22;22044;48.298;10.008;2024-02-16T07:22:24;6.00;99.90
35962;DHT22;22044;48.298;10.008;2024-02-16T07:25:11;6.00;99.90
35962;DHT22;22044;48.298;10.008;2024-02-16T07:27:57;6.00;99.90
35962;DHT22;22044;48.298;10.008;2024-02-16T07:30:43;6.00;99.90
35962;DHT22;22044;48.298;10.008;2024-02-16T07:33:29;6.10;99.90
35962;DHT22;22044;48.298;10.008;2024-02-16T07:36:16;6.20;99.90
35962;DHT22;22044;48.298;10.008;2024-02-16T07:39:03;6.30;99.90
35962;DHT22;22044;48.298;10.008;2024-02-16T07:41:51;6.30;99.90
35962;DHT22;22044;48.298;10.008;2024-02-16T07:44:37;6.40;99.90
35962;DHT22;22044;48.298;10.008;2024-02-16T07:47:24;6.40;99.90
35962;DHT22;22044;48.298;10.008;2024-02-16T07:50:09;6.50;99.90
35962;DHT22;22044;48.298;10.008;2024-02-16T07:52:55;6.60;99.90
35962;DHT22;22044;48.298;10.008;2024-02-16T07:55:41;6.60;99.90
35962;DHT22;22044;48.298;10.008;2024-02-16T07:58:31;6.60;99.90
35962;DHT22;22044;48.298;10.008;2024-02-16T08:01:17;6.70;99.90
35962;DHT22;22044;48.298;10.008;2024-02-16T08:04:03;6.80;99.90
35962;DHT22;22044;48.298;10.008;2024-02-16T08:06:50;6.90;99.90
35962;DHT22;22044;48.298;10.008;2024-02-16T08:09:36;6.90;99.90
35962;DHT22;22044;48.298;10.008;2024-02-16T08:12:24;7.00;99.90
35962;DHT22;22044;48.298;10.008;2024-02-16T08:15:13;7.10;99.90
35962;DHT22;22044;48.298;10.008;2024-02-16T08:17:58;7.10;99.90
35962;DHT22;22044;48.298;10.008;2024-02-16T08:20:44;7.10;99.90
35962;DHT22;22044;48.298;10.008;2024-02-16T08:23:30;7.10;99.90
35962;DHT22;22044;48.298;10.008;2024-02-16T08:26:16;7.10;99.90
35962;DHT22;22044;48.298;10.008;2024-02-16T08:29:02;7.20;99.90
35962;DHT22;22044;48.298;10.008;2024-02-16T08:31:49;7.30;99.90
35962;DHT22;22044;48.298;10.008;2024-02-16T08:34:35;7.30;99.90
35962;DHT22;22044;48.298;10.008;2024-02-16T08:37:24;7.40;99.90
35962;DHT22;22044;48.298;10.008;2024-02-16T08:40:12;7.40;99.90
35962;DHT22;22044;48.298;10.008;2024-02-16T08:42:59;7.50;99.90
35962;DHT22;22044;48.298;10.008;2024-02-16T08:45:47;7.60;99.90
35962;DHT22;22044;48.298;10.008;2024-02-16T08:48:35;7.80;99.90
35962;DHT22;22044;48.298;10.008;2024-02-16T08:51:22;7.90;99.90
35962;DHT22;22044;48.298;10.008;2024-02-16T08:54:08;8.00;99.90
35962;DHT22;22044;48.298;10.008;2024-02-16T08:56:55;8.10;99.90
35962;DHT22;22044;48.298;10.008;2024-02-16T08:59:41;8.30;99.90
35962;DHT22;22044;48.298;10.008;2024-02-16T09:02:29;8.40;99.90
35962;DHT22;22044;48.298;10.008;2024-02-16T09:05:17;8.60;99.90
35962;DHT22;22044;48.298;10.008;2024-02-16T09:08:04;8.70;99.90
35962;DHT22;22044;48.298;10.008;2024-02-16T09:10:50;8.80;99.90
35962;DHT22;22044;48.298;10.008;2024-02-16T09:13:39;9.00;99.90
35962;DHT22;22044;48.298;10.008;2024-02-16T09:16:24;9.10;99.90
35962;DHT22;22044;48.298;10.008;2024-02-16T09:19:10;9.40;99.90
35962;DHT22;22044;48.298;10.008;2024-02-16T09:21:59;9.60;99.90
35962;DHT22;22044;48.298;10.008;2024-02-16T09:24:46;9.70;99.90
35962;DHT22;22044;48.298;10.008;2024-02-16T09:27:32;9.90;99.90
35962;DHT22;22044;48.298;10.008;2024-02-16T09:30:18;10.00;99.90
35962;DHT22;22044;48.298;10.008;2024-02-16T09:33:06;10.30;99.90
35962;DHT22;22044;48.298;10.008;2024-02-16T09:35:52;10.30;99.90
35962;DHT22;22044;48.298;10.008;2024-02-16T09:38:39;10.50;99.90
35962;DHT22;22044;48.298;10.008;2024-02-16T09:41:25;10.50;99.90
35962;DHT22;22044;48.298;10.008;2024-02-16T09:44:13;10.40;99.90
35962;DHT22;22044;48.298;10.008;2024-02-16T09:47:03;10.50;99.90
35962;DHT22;22044;48.298;10.008;2024-02-16T09:49:49;10.60;99.90
35962;DHT22;22044;48.298;10.008;2024-02-16T09:52:38;10.80;99.90
35962;DHT22;22044;48.298;10.008;2024-02-16T09:55:25;10.80;99.90
35962;DHT22;22044;48.298;10.008;2024-02-16T09:58:14;10.80;99.90
35962;DHT22;22044;48.298;10.008;2024-02-16T10:01:05;10.90;99.90
35962;DHT22;22044;48.298;10.008;2024-02-16T10:03:51;10.90;99.90
35962;DHT22;22044;48.298;10.008;2024-02-16T10:06:46;10.90;99.90
35962;DHT22;22044;48.298;10.008;2024-02-16T10:09:33;10.90;99.90
35962;DHT22;22044;48.298;10.008;2024-02-16T10:12:23;10.80;99.90
35962;DHT22;22044;48.298;10.008;2024-02-16T10:15:09;10.70;99.90
35962;DHT22;22044;48.298;10.008;2024-02-16T10:17:58;10.70;99.90
35962;DHT22;22044;48.298;10.008;2024-02-16T10:20:44;10.70;99.90
35962;DHT22;22044;48.298;10.008;2024-02-16T10:23:36;10.70;99.90
35962;DHT22;22044;48.298;10.008;2024-02-16T10:26:22;10.80;99.90
35962;DHT22;22044;48.298;10.008;2024-02-16T10:29:10;10.80;99.90
35962;DHT22;22044;48.298;10.008;2024-02-16T10:32:24;10.80;99.90
35962;DHT22;22044;48.298;10.008;2024-02-16T10:35:10;10.90;99.90
35962;DHT22;22044;48.298;10.008;2024-02-16T10:37:59;11.00;99.90
35962;DHT22;22044;48.298;10.008;2024-02-16T10:40:51;11.00;99.90
35962;DHT22;22044;48.298;10.008;2024-02-16T10:43:36;11.10;99.90
35962;DHT22;22044;48.298;10.008;2024-02-16T10:46:24;11.20;99.90
35962;DHT22;22044;48.298;10.008;2024-02-16T10:49:10;11.30;99.90
35962;DHT22;22044;48.298;10.008;2024-02-16T10:51:57;11.40;99.90
35962;DHT22;22044;48.298;10.008;2024-02-16T10:54:43;11.50;99.90
35962;DHT22;22044;48.298;10.008;2024-02-16T10:57:29;11.50;99.90
35962;DHT22;22044;48.298;10.008;2024-02-16T11:00:16;11.60;99.90
35962;DHT22;22044;48.298;10.008;2024-02-16T11:03:05;11.80;99.90
35962;DHT22;22044;48.298;10.008;2024-02-16T11:05:54;11.90;99.90
35962;DHT22;22044;48.298;10.008;2024-02-16T11:08:41;12.00;99.90
35962;DHT22;22044;48.298;10.008;2024-02-16T11:11:27;12.10;99.90
35962;DHT22;22044;48.298;10.008;2024-02-16T11:14:15;12.30;99.90
35962;DHT22;22044;48.298;10.008;2024-02-16T11:17:01;12.40;99.90
35962;DHT22;22044;48.298;10.008;2024-02-16T11:19:49;12.40;99.90
35962;DHT22;22044;48.298;10.008;2024-02-16T11:22:37;12.50;99.90
35962;DHT22;22044;48.298;10.008;2024-02-16T11:25:31;12.60;99.90
35962;DHT22;22044;48.298;10.008;2024-02-16T11:28:18;12.70;99.90
35962;DHT22;22044;48.298;10.008;2024-02-16T11:31:04;12.60;99.90
35962;DHT22;22044;48.298;10.008;2024-02-16T11:33:51;12.60;99.90
35962;DHT22;22044;48.298;10.008;2024-02-16T11:36:38;12.70;99.90
35962;DHT22;22044;48.298;10.008;2024-02-16T11:39:25;12.80;99.90
35962;DHT22;22044;48.298;10.008;2024-02-16T11:42:12;12.80;99.90
35962;DHT22;22044;48.298;10.008;2024-02-16T11:45:02;12.80;99.90
35962;DHT22;22044;48.298;10.008;2024-02-16T11:47:48;12.80;99.90
35962;DHT22;22044;48.298;10.008;2024-02-16T11:50:34;12.90;99.90
35962;DHT22;22044;48.298;10.008;2024-02-16T11:53:21;12.90;99.90
35962;DHT22;22044;48.298;10.008;2024-02-16T11:56:07;12.90;99.90
35962;DHT22;22044;48.298;10.008;2024-02-16T11:58:54;12.90;99.90
35962;DHT22;22044;48.298;10.008;2024-02-16T12:01:49;12.80;99.90
35962;DHT22;22044;48.298;10.008;2024-02-16T12:04:38;12.80;99.90
35962;DHT22;22044;48.298;10.008;2024-02-16T12:07:25;12.80;99.90
35962;DHT22;22044;48.298;10.008;2024-02-16T12:10:14;12.80;99.90
35962;DHT22;22044;48.298;10.008;2024-02-16T12:13:00;12.80;99.90
35962;DHT22;22044;48.298;10.008;2024-02-16T12:15:46;12.90;99.90
35962;DHT22;22044;48.298;10.008;2024-02-16T12:18:32;12.90;99.90
35962;DHT22;22044;48.298;10.008;2024-02-16T12:21:21;12.90;99.90
35962;DHT22;22044;48.298;10.008;2024-02-16T12:24:10;12.90;99.90
35962;DHT22;22044;48.298;10.008;2024-02-16T12:26:57;13.00;99.90
35962;DHT22;22044;48.298;10.008;2024-02-16T12:29:43;13.00;99.90
35962;DHT22;22044;48.298;10.008;2024-02-16T12:32:29;13.10;99.90
35962;DHT22;22044;48.298;10.008;2024-02-16T12:35:15;13.20;99.90
35962;DHT22;22044;48.298;10.008;2024-02-16T12:38:01;13.20;99.90
35962;DHT22;22044;48.298;10.008;2024-02-16T12:40:47;13.30;99.90
35962;DHT22;22044;48.298;10.008;2024-02-16T12:43:34;13.30;99.90
35962;DHT22;22044;48.298;10.008;2024-02-16T12:46:21;13.40;99.90
35962;DHT22;22044;48.298;10.008;2024-02-16T12:49:07;13.40;99.90
35962;DHT22;22044;48.298;10.008;2024-02-16T12:51:52;13.40;99.90
35962;DHT22;22044;48.298;10.008;2024-02-16T12:54:41;13.40;99.90
35962;DHT22;22044;48.298;10.008;2024-02-16T12:57:27;13.50;99.90
35962;DHT22;22044;48.298;10.008;2024-02-16T13:00:15;13.50;99.90
35962;DHT22;22044;48.298;10.008;2024-02-16T13:03:01;13.50;99.90
35962;DHT22;22044;48.298;10.008;2024-02-16T13:05:46;13.50;99.90
35962;DHT22;22044;48.298;10.008;2024-02-16T13:08:32;13.60;99.90
35962;DHT22;22044;48.298;10.008;2024-02-16T13:11:18;13.60;99.90
35962;DHT22;22044;48.298;10.008;2024-02-16T13:14:04;13.60;99.90
35962;DHT22;22044;48.298;10.008;2024-02-16T13:17:00;13.60;99.90
35962;DHT22;22044;48.298;10.008;2024-02-16T13:19:47;13.60;99.90
35962;DHT22;22044;48.298;10.008;2024-02-16T13:22:35;13.60;99.90
35962;DHT22;22044;48.298;10.008;2024-02-16T13:25:21;13.60;99.90
35962;DHT22;22044;48.298;10.008;2024-02-16T13:28:32;13.70;99.90
35962;DHT22;22044;48.298;10.008;2024-02-16T13:31:19;13.70;99.90
35962;DHT22;22044;48.298;10.008;2024-02-16T13:34:06;13.80;99.90
35962;DHT22;22044;48.298;10.008;2024-02-16T13:36:52;13.80;99.90
35962;DHT22;22044;48.298;10.008;2024-02-16T13:39:38;13.90;99.90
35962;DHT22;22044;48.298;10.008;2024-02-16T13:42:23;13.90;99.90
35962;DHT22;22044;48.298;10.008;2024-02-16T13:45:11;14.00;99.90
35962;DHT22;22044;48.298;10.008;2024-02-16T13:47:57;14.00;99.90
35962;DHT22;22044;48.298;10.008;2024-02-16T13:50:45;14.00;99.90
35962;DHT22;22044;48.298;10.008;2024-02-16T13:53:32;14.00;99.90
35962;DHT22;22044;48.298;10.008;2024-02-16T13:56:18;14.10;99.90
35962;DHT22;22044;48.298;10.008;2024-02-16T13:59:04;14.10;99.90
35962;DHT22;22044;48.298;10.008;2024-02-16T14:01:51;14.10;99.90
35962;DHT22;22044;48.298;10.008;2024-02-16T14:04:37;14.20;99.90
35962;DHT22;22044;48.298;10.008;2024-02-16T14:07:24;14.20;99.90
35962;DHT22;22044;48.298;10.008;2024-02-16T14:10:13;14.20;99.90
35962;DHT22;22044;48.298;10.008;2024-02-16T14:12:58;14.20;99.90
35962;DHT22;22044;48.298;10.008;2024-02-16T14:15:44;14.20;99.90
35962;DHT22;22044;48.298;10.008;2024-02-16T14:18:32;14.30;99.90
35962;DHT22;22044;48.298;10.008;2024-02-16T14:21:18;14.30;99.90
35962;DHT22;22044;48.298;10.008;2024-02-16T14:24:05;14.30;99.90
35962;DHT22;22044;48.298;10.008;2024-02-16T14:26:55;14.30;99.90
35962;DHT22;22044;48.298;10.008;2024-02-16T14:29:41;14.30;99.90
35962;DHT22;22044;48.298;10.008;2024-02-16T14:32:27;14.30;99.90
35962;DHT22;22044;48.298;10.008;2024-02-16T14:35:13;14.30;99.90
35962;DHT22;22044;48.298;10.008;2024-02-16T14:38:01;14.30;99.90
35962;DHT22;22044;48.298;10.008;2024-02-16T14:40:48;14.30;99.90
35962;DHT22;22044;48.298;10.008;2024-02-16T14:43:34;14.30;99.90
35962;DHT22;22044;48.298;10.008;2024-02-16T14:46:19;14.30;99.90
35962;DHT22;22044;48.298;10.008;2024-02-16T14:49:05;14.30;99.90
35962;DHT22;22044;48.298;10.008;2024-02-16T14:51:53;14.30;99.90
35962;DHT22;22044;48.298;10.008;2024-02-16T14:54:39;14.30;99.90
35962;DHT22;22044;48.298;10.008;2024-02-16T14:57:27;14.30;99.90
35962;DHT22;22044;48.298;10.008;2024-02-16T15:00:13;14.30;99.90
35962;DHT22;22044;48.298;10.008;2024-02-16T15:02:59;14.20;99.90
35962;DHT22;22044;48.298;10.008;2024-02-16T15:05:48;14.40;99.90
35962;DHT22;22044;48.298;10.008;2024-02-16T15:08:33;14.30;99.90
35962;DHT22;22044;48.298;10.008;2024-02-16T15:11:19;14.20;99.90
35962;DHT22;22044;48.298;10.008;2024-02-16T15:14:06;14.20;99.90
35962;DHT22;22044;48.298;10.008;2024-02-16T15:16:52;14.20;99.90
35962;DHT22;22044;48.298;10.008;2024-02-16T15:19:38;14.10;99.90
35962;DHT22;22044;48.298;10.008;2024-02-16T15:22:24;14.10;99.90
35962;DHT22;22044;48.298;10.008;2024-02-16T15:25:10;14.10;99.90
35962;DHT22;22044;48.298;10.008;2024-02-16T15:27:58;14.10;99.90
35962;DHT22;22044;48.298;10.008;2024-02-16T15:30:48;14.10;99.90
35962;DHT22;22044;48.298;10.008;2024-02-16T15:33:34;14.00;99.90
35962;DHT22;22044;48.298;10.008;2024-02-16T15:36:19;13.90;99.90
35962;DHT22;22044;48.298;10.008;2024-02-16T15:39:05;13.90;99.90
35962;DHT22;22044;48.298;10.008;2024-02-16T15:41:52;13.90;99.90
35962;DHT22;22044;48.298;10.008;2024-02-16T15:44:39;13.80;99.90
35962;DHT22;22044;48.298;10.008;2024-02-16T15:47:28;13.80;99.90
35962;DHT22;22044;48.298;10.008;2024-02-16T15:50:14;13.70;99.90
35962;DHT22;22044;48.298;10.008;2024-02-16T15:53:00;13.70;99.90
35962;DHT22;22044;48.298;10.008;2024-02-16T15:55:45;13.70;99.90
35962;DHT22;22044;48.298;10.008;2024-02-16T15:58:31;13.60;99.90
35962;DHT22;22044;48.298;10.008;2024-02-16T16:01:17;13.60;99.90
35962;DHT22;22044;48.298;10.008;2024-02-16T16:04:04;13.60;99.90
35962;DHT22;22044;48.298;10.008;2024-02-16T16:06:50;13.60;99.90
35962;DHT22;22044;48.298;10.008;2024-02-16T16:09:36;13.60;99.90
35962;DHT22;22044;48.298;10.008;2024-02-16T16:12:25;13.50;99.90
35962;DHT22;22044;48.298;10.008;2024-02-16T16:15:11;13.50;99.90
35962;DHT22;22044;48.298;10.008;2024-02-16T16:17:56;13.50;99.90
35962;DHT22;22044;48.298;10.008;2024-02-16T16:20:44;13.50;99.90
35962;DHT22;22044;48.298;10.008;2024-02-16T16:23:32;13.50;99.90
35962;DHT22;22044;48.298;10.008;2024-02-16T16:26:22;13.50;99.90
35962;DHT22;22044;48.298;10.008;2024-02-16T16:29:14;13.40;99.90
35962;DHT22;22044;48.298;10.008;2024-02-16T16:32:11;13.40;99.90
35962;DHT22;22044;48.298;10.008;2024-02-16T16:35:01;13.40;99.90
35962;DHT22;22044;48.298;10.008;2024-02-16T16:37:48;13.30;99.90
35962;DHT22;22044;48.298;10.008;2024-02-16T16:40:35;13.30;99.90
35962;DHT22;22044;48.298;10.008;2024-02-16T16:43:21;13.20;99.90
35962;DHT22;22044;48.298;10.008;2024-02-16T16:46:07;13.20;99.90
35962;DHT22;22044;48.298;10.008;2024-02-16T16:48:53;13.20;99.90
35962;DHT22;22044;48.298;10.008;2024-02-16T16:51:42;13.20;99.90
35962;DHT22;22044;48.298;10.008;2024-02-16T16:54:29;13.10;99.90
35962;DHT22;22044;48.298;10.008;2024-02-16T16:57:14;13.00;99.90
35962;DHT22;22044;48.298;10.008;2024-02-16T17:00:04;13.10;99.90
35962;DHT22;22044;48.298;10.008;2024-02-16T17:02:50;13.00;99.90
35962;DHT22;22044;48.298;10.008;2024-02-16T17:05:35;13.00;99.90
35962;DHT22;22044;48.298;10.008;2024-02-16T17:08:21;12.90;99.90
35962;DHT22;22044;48.298;10.008;2024-02-16T17:11:33;13.00;99.90
35962;DHT22;22044;48.298;10.008;2024-02-16T17:14:19;13.00;99.90
35962;DHT22;22044;48.298;10.008;2024-02-16T17:17:05;13.00;99.90
35962;DHT22;22044;48.298;10.008;2024-02-16T17:19:50;13.00;99.90
35962;DHT22;22044;48.298;10.008;2024-02-16T17:22:36;12.90;99.90
35962;DHT22;22044;48.298;10.008;2024-02-16T17:25:22;12.90;99.90
35962;DHT22;22044;48.298;10.008;2024-02-16T17:28:09;12.90;99.90
35962;DHT22;22044;48.298;10.008;2024-02-16T17:30:54;12.90;99.90